createdAt,value
2018-09-18T00:01:27.924Z,98711.00
2018-09-18T00:03:56.251Z,98711.00
2018-09-18T00:06:24.602Z,98713.00
2018-09-18T00:08:52.954Z,98709.00
2018-09-18T00:11:21.304Z,98701.00
2018-09-18T00:13:49.654Z,98694.00
2018-09-18T00:16:18.047Z,98701.00
2018-09-18T00:18:46.439Z,98694.00
2018-09-18T00:21:26.277Z,98691.00
2018-09-18T00:23:54.627Z,98692.00
2018-09-18T00:26:22.958Z,98692.00
2018-09-18T00:28:51.329Z,98697.00
2018-09-18T00:31:19.706Z,98691.00
2018-09-18T00:33:48.075Z,98687.00
2018-09-18T00:36:16.438Z,98684.00
2018-09-18T00:38:44.820Z,98691.00
2018-09-18T00:41:13.189Z,98686.00
2018-09-18T00:43:41.543Z,98683.00
2018-09-18T00:46:09.876Z,98689.00
2018-09-18T00:48:38.220Z,98677.00
2018-09-18T00:51:06.589Z,98686.00
2018-09-18T00:53:34.967Z,98676.00
2018-09-18T00:56:03.346Z,98681.00
2018-09-18T00:58:31.685Z,98701.00
2018-09-18T01:01:00.019Z,98693.00
2018-09-18T01:03:28.370Z,98682.00
2018-09-18T01:05:56.767Z,98683.00
2018-09-18T01:08:25.110Z,98685.00
2018-09-18T01:10:53.471Z,98692.00
2018-09-18T01:13:21.815Z,98686.00
2018-09-18T01:15:50.166Z,98691.00
2018-09-18T01:18:18.523Z,98681.00
2018-09-18T01:20:46.887Z,98687.00
2018-09-18T01:23:15.276Z,98682.00
2018-09-18T01:25:43.659Z,98682.00
2018-09-18T01:28:12.070Z,98686.00
2018-09-18T01:30:40.525Z,98678.00
2018-09-18T01:33:08.874Z,98681.00
2018-09-18T01:35:37.243Z,98686.00
2018-09-18T01:38:05.610Z,98688.00
2018-09-18T01:40:33.963Z,98688.00
2018-09-18T01:43:02.427Z,98681.00
2018-09-18T01:45:30.787Z,98679.00
2018-09-18T01:47:59.156Z,98685.00
2018-09-18T01:50:27.519Z,98680.00
2018-09-18T01:52:55.888Z,98674.00
2018-09-18T01:55:24.268Z,98681.00
2018-09-18T01:57:52.619Z,98678.00
2018-09-18T02:00:20.968Z,98683.00
2018-09-18T02:02:49.313Z,98679.00
2018-09-18T02:05:17.663Z,98683.00
2018-09-18T02:07:46.027Z,98689.00
2018-09-18T02:10:14.375Z,98679.00
2018-09-18T02:12:42.770Z,98678.00
2018-09-18T02:15:11.134Z,98680.00
2018-09-18T02:17:39.486Z,98677.00
2018-09-18T02:20:07.866Z,98685.00
2018-09-18T02:22:36.326Z,98684.00
2018-09-18T02:25:04.705Z,98690.00
2018-09-18T02:27:33.084Z,98691.00
2018-09-18T02:30:01.439Z,98683.00
2018-09-18T02:32:29.826Z,98682.00
2018-09-18T02:34:58.271Z,98685.00
2018-09-18T02:37:26.664Z,98685.00
2018-09-18T02:39:55.016Z,98679.00
2018-09-18T02:42:23.419Z,98674.00
2018-09-18T02:44:52.118Z,98678.00
2018-09-18T02:47:20.591Z,98681.00
2018-09-18T02:49:49.336Z,98680.00
2018-09-18T02:52:17.847Z,98689.00
2018-09-18T02:54:46.204Z,98680.00
2018-09-18T02:57:14.748Z,98679.00
2018-09-18T02:59:43.116Z,98676.00
2018-09-18T03:02:11.479Z,98688.00
2018-09-18T03:04:39.960Z,98685.00
2018-09-18T03:07:08.357Z,98686.00
2018-09-18T03:09:36.724Z,98689.00
2018-09-18T03:12:05.097Z,98686.00
2018-09-18T03:14:33.538Z,98686.00
2018-09-18T03:17:01.898Z,98694.00
2018-09-18T03:19:30.253Z,98689.00
2018-09-18T03:21:58.655Z,98693.00
2018-09-18T03:24:27.031Z,98695.00
2018-09-18T03:26:55.426Z,98694.00
2018-09-18T03:29:23.824Z,98687.00
2018-09-18T03:31:52.211Z,98686.00
2018-09-18T03:34:20.570Z,98690.00
2018-09-18T03:36:48.979Z,98690.00
2018-09-18T03:39:17.368Z,98691.00
2018-09-18T03:41:45.770Z,98693.00
2018-09-18T03:44:14.134Z,98691.00
2018-09-18T03:46:42.663Z,98688.00
2018-09-18T03:49:11.032Z,98689.00
2018-09-18T03:51:39.408Z,98687.00
2018-09-18T03:54:07.794Z,98695.00
2018-09-18T03:56:36.168Z,98680.00
2018-09-18T03:59:04.562Z,98692.00
2018-09-18T04:01:32.962Z,98684.00
2018-09-18T04:04:01.334Z,98682.00
2018-09-18T04:06:29.691Z,98673.00
2018-09-18T04:08:58.223Z,98674.00
2018-09-18T04:11:26.605Z,98670.00
2018-09-18T04:13:55.000Z,98674.00
2018-09-18T04:16:23.381Z,98676.00
2018-09-18T04:18:51.792Z,98678.00
2018-09-18T04:21:20.155Z,98667.00
2018-09-18T04:23:48.520Z,98677.00
2018-09-18T04:26:17.330Z,98673.00
2018-09-18T04:28:45.891Z,98664.00
2018-09-18T04:31:14.294Z,98673.00
2018-09-18T04:33:42.686Z,98675.00
2018-09-18T04:36:11.132Z,98682.00
2018-09-18T04:38:39.534Z,98667.00
2018-09-18T04:41:07.912Z,98679.00
2018-09-18T04:43:36.308Z,98676.00
2018-09-18T04:46:04.720Z,98680.00
2018-09-18T04:48:33.067Z,98681.00
2018-09-18T04:51:01.472Z,98673.00
2018-09-18T04:53:29.836Z,98689.00
2018-09-18T04:55:58.224Z,98679.00
2018-09-18T04:58:26.599Z,98688.00
2018-09-18T05:00:55.300Z,98685.00
2018-09-18T05:03:23.721Z,98689.00
2018-09-18T05:05:52.167Z,98698.00
2018-09-18T05:08:20.693Z,98696.00
2018-09-18T05:10:50.234Z,98690.00
2018-09-18T05:13:30.598Z,98697.00
2018-09-18T05:15:59.959Z,98698.00
2018-09-18T05:18:28.386Z,98701.00
2018-09-18T05:20:56.811Z,98698.00
2018-09-18T05:23:25.251Z,98694.00
2018-09-18T05:25:53.698Z,98695.00
2018-09-18T05:28:22.115Z,98697.00
2018-09-18T05:30:50.539Z,98699.00
2018-09-18T05:33:18.951Z,98699.00
2018-09-18T05:35:47.401Z,98698.00
2018-09-18T05:38:15.884Z,98692.00
2018-09-18T05:40:44.462Z,98702.00
2018-09-18T05:43:13.089Z,98705.00
2018-09-18T05:45:41.521Z,98698.00
2018-09-18T05:48:12.179Z,98701.00
2018-09-18T05:50:40.958Z,98696.00
2018-09-18T05:53:09.936Z,98704.00
2018-09-18T05:55:38.373Z,98700.00
2018-09-18T05:58:06.841Z,98698.00
2018-09-18T06:00:35.314Z,98698.00
2018-09-18T06:03:03.722Z,98704.00
2018-09-18T06:05:32.145Z,98694.00
2018-09-18T06:08:00.551Z,98692.00
2018-09-18T06:10:29.021Z,98703.00
2018-09-18T06:12:57.442Z,98701.00
2018-09-18T06:15:25.854Z,98712.00
2018-09-18T06:17:54.283Z,98703.00
2018-09-18T06:20:22.710Z,98697.00
2018-09-18T06:22:51.140Z,98700.00
2018-09-18T06:25:19.542Z,98706.00
2018-09-18T06:27:47.962Z,98702.00
2018-09-18T06:30:29.540Z,98701.00
2018-09-18T06:32:57.922Z,98708.00
2018-09-18T06:35:26.401Z,98708.00
2018-09-18T06:37:54.815Z,98711.00
2018-09-18T06:40:23.254Z,98712.00
2018-09-18T06:42:51.692Z,98704.00
2018-09-18T06:45:20.082Z,98705.00
2018-09-18T06:47:48.514Z,98709.00
2018-09-18T06:50:16.929Z,98711.00
2018-09-18T06:52:45.363Z,98712.00
2018-09-18T06:55:13.784Z,98712.00
2018-09-18T06:57:42.216Z,98716.00
2018-09-18T07:00:10.599Z,98707.00
2018-09-18T07:02:38.991Z,98714.00
2018-09-18T07:05:07.401Z,98709.00
2018-09-18T07:07:35.804Z,98717.00
2018-09-18T07:10:04.275Z,98709.00
2018-09-18T07:12:32.759Z,98708.00
2018-09-18T07:15:01.152Z,98704.00
2018-09-18T07:17:29.543Z,98707.00
2018-09-18T07:19:57.977Z,98704.00
2018-09-18T07:22:26.403Z,98710.00
2018-09-18T07:24:54.892Z,98703.00
2018-09-18T07:27:23.217Z,98707.00
2018-09-18T07:29:51.603Z,98696.00
2018-09-18T07:32:19.978Z,98694.00
2018-09-18T07:34:48.374Z,98694.00
2018-09-18T07:37:16.769Z,98697.00
2018-09-18T07:39:45.187Z,98692.00
2018-09-18T07:42:13.602Z,98692.00
2018-09-18T07:44:42.003Z,98694.00
2018-09-18T07:47:10.406Z,98702.00
2018-09-18T07:49:38.822Z,98703.00
2018-09-18T07:52:07.251Z,98710.00
2018-09-18T07:54:35.692Z,98706.00
2018-09-18T07:57:04.130Z,98704.00
2018-09-18T07:59:32.550Z,98708.00
2018-09-18T08:02:01.023Z,98697.00
2018-09-18T08:04:29.439Z,98699.00
2018-09-18T08:06:57.855Z,98694.00
2018-09-18T08:09:26.259Z,98700.00
2018-09-18T08:11:54.669Z,98696.00
2018-09-18T08:14:23.087Z,98695.00
2018-09-18T08:16:51.454Z,98692.00
2018-09-18T08:19:19.915Z,98688.00
2018-09-18T08:21:48.310Z,98682.00
2018-09-18T08:24:16.744Z,98677.00
2018-09-18T08:26:45.143Z,98680.00
2018-09-18T08:29:13.660Z,98689.00
2018-09-18T08:31:42.438Z,98683.00
2018-09-18T08:34:10.912Z,98685.00
2018-09-18T08:36:39.317Z,98679.00
2018-09-18T08:39:08.835Z,98683.00
2018-09-18T08:41:37.597Z,98686.00
2018-09-18T08:44:05.994Z,98683.00
2018-09-18T08:46:34.566Z,98685.00
2018-09-18T08:49:03.120Z,98680.00
2018-09-18T08:51:31.576Z,98676.00
2018-09-18T08:54:00.047Z,98683.00
2018-09-18T08:56:28.563Z,98677.00
2018-09-18T08:58:57.044Z,98674.00
2018-09-18T09:01:25.552Z,98673.00
2018-09-18T09:03:54.033Z,98686.00
2018-09-18T09:06:22.582Z,98672.00
2018-09-18T09:08:51.059Z,98659.00
2018-09-18T09:11:19.357Z,98668.00
2018-09-18T09:13:47.790Z,98660.00
2018-09-18T09:16:16.195Z,98668.00
2018-09-18T09:18:44.643Z,98677.00
2018-09-18T09:21:13.123Z,98672.00
2018-09-18T09:23:41.496Z,98669.00
2018-09-18T09:26:10.003Z,98666.00
2018-09-18T09:28:38.471Z,98661.00
2018-09-18T09:31:06.903Z,98662.00
2018-09-18T09:33:35.359Z,98673.00
2018-09-18T09:36:03.757Z,98662.00
2018-09-18T09:38:32.174Z,98653.00
2018-09-18T09:41:00.637Z,98654.00
2018-09-18T09:43:29.065Z,98654.00
2018-09-18T09:45:57.447Z,98656.00
2018-09-18T09:48:25.825Z,98661.00
2018-09-18T09:50:54.202Z,98651.00
2018-09-18T09:53:22.611Z,98645.00
2018-09-18T09:55:51.025Z,98642.00
2018-09-18T09:58:19.459Z,98641.00
2018-09-18T10:00:53.181Z,98640.00
2018-09-18T10:03:21.569Z,98644.00
2018-09-18T10:05:50.002Z,98648.00
2018-09-18T10:08:18.406Z,98645.00
2018-09-18T10:10:47.038Z,98646.00
2018-09-18T10:13:15.275Z,98642.00
2018-09-18T10:15:43.768Z,98636.00
2018-09-18T10:18:12.298Z,98623.00
2018-09-18T10:20:40.732Z,98630.00
2018-09-18T10:23:09.233Z,98628.00
2018-09-18T10:25:37.721Z,98627.00
2018-09-18T10:28:06.380Z,98625.00
2018-09-18T10:30:34.794Z,98632.00
2018-09-18T10:33:03.306Z,98624.00
2018-09-18T10:35:31.694Z,98629.00
2018-09-18T10:38:00.107Z,98620.00
2018-09-18T10:40:28.613Z,98611.00
2018-09-18T10:42:57.142Z,98619.00
2018-09-18T10:45:25.564Z,98621.00
2018-09-18T10:47:54.033Z,98609.00
2018-09-18T10:50:22.452Z,98611.00
2018-09-18T10:52:50.941Z,98605.00
2018-09-18T10:55:19.454Z,98609.00
2018-09-18T10:57:48.060Z,98604.00
2018-09-18T11:00:16.542Z,98594.00
2018-09-18T11:02:45.001Z,98594.00
2018-09-18T11:05:13.613Z,98586.00
2018-09-18T11:07:42.116Z,98587.00
2018-09-18T11:10:10.559Z,98593.00
2018-09-18T11:12:38.977Z,98586.00
2018-09-18T11:15:07.314Z,98582.00
2018-09-18T11:17:35.779Z,98591.00
2018-09-18T11:20:04.427Z,98581.00
2018-09-18T11:22:32.792Z,98578.00
2018-09-18T11:25:01.310Z,98584.00
2018-09-18T11:27:29.643Z,98573.00
2018-09-18T11:29:58.052Z,98583.00
2018-09-18T11:32:26.463Z,98571.00
2018-09-18T11:34:54.865Z,98575.00
2018-09-18T11:37:23.241Z,98572.00
2018-09-18T11:39:51.657Z,98562.00
2018-09-18T11:42:20.051Z,98570.00
2018-09-18T11:44:48.481Z,98570.00
2018-09-18T11:47:16.925Z,98559.00
2018-09-18T11:49:45.303Z,98569.00
2018-09-18T11:52:13.723Z,98566.00
2018-09-18T11:54:42.126Z,98556.00
2018-09-18T11:57:10.613Z,98558.00
2018-09-18T11:59:39.010Z,98541.00
2018-09-18T12:02:07.413Z,98543.00
2018-09-18T12:04:35.854Z,98548.00
2018-09-18T12:07:04.241Z,98545.00
2018-09-18T12:09:32.667Z,98546.00
2018-09-18T12:12:01.091Z,98550.00
2018-09-18T12:14:30.147Z,98546.00
2018-09-18T12:17:15.097Z,98551.00
2018-09-18T12:20:02.807Z,98554.00
2018-09-18T12:22:31.384Z,98544.00
2018-09-18T12:24:59.791Z,98541.00
2018-09-18T12:27:28.211Z,98540.00
2018-09-18T12:29:56.594Z,98544.00
2018-09-18T12:32:24.997Z,98530.00
2018-09-18T12:34:53.433Z,98517.00
2018-09-18T12:37:21.829Z,98525.00
2018-09-18T12:39:50.220Z,98524.00
2018-09-18T12:42:18.726Z,98519.00
2018-09-18T12:44:47.115Z,98524.00
2018-09-18T12:47:22.846Z,98520.00
2018-09-18T12:49:51.525Z,98512.00
2018-09-18T12:52:19.823Z,98510.00
2018-09-18T12:54:48.265Z,98519.00
2018-09-18T12:57:16.923Z,98515.00
2018-09-18T12:59:45.226Z,98509.00
2018-09-18T13:02:13.647Z,98503.00
2018-09-18T13:04:42.080Z,98494.00
2018-09-18T13:07:10.531Z,98494.00
2018-09-18T13:09:39.021Z,98493.00
2018-09-18T13:12:07.549Z,98496.00
2018-09-18T13:14:35.972Z,98479.00
2018-09-18T13:17:04.391Z,98484.00
2018-09-18T13:19:32.831Z,98483.00
2018-09-18T13:22:01.289Z,98482.00
2018-09-18T13:24:29.743Z,98492.00
2018-09-18T13:26:58.289Z,98487.00
2018-09-18T13:29:30.826Z,98480.00
2018-09-18T13:32:04.014Z,98472.00
2018-09-18T13:34:39.737Z,98477.00
2018-09-18T13:37:08.340Z,98477.00
2018-09-18T13:39:39.003Z,98464.00
2018-09-18T13:42:08.663Z,98469.00
2018-09-18T13:44:37.466Z,98471.00
2018-09-18T13:47:06.248Z,98454.00
2018-09-18T13:49:34.750Z,98462.00
2018-09-18T13:52:04.352Z,98464.00
2018-09-18T13:54:33.070Z,98464.00
2018-09-18T13:57:01.602Z,98457.00
2018-09-18T13:59:30.108Z,98452.00
2018-09-18T14:02:06.939Z,98450.00
2018-09-18T14:04:35.548Z,98450.00
2018-09-18T14:07:04.239Z,98453.00
2018-09-18T14:09:34.103Z,98454.00
2018-09-18T14:12:03.241Z,98449.00
2018-09-18T14:14:34.148Z,98449.00
2018-09-18T14:17:02.945Z,98449.00
2018-09-18T14:19:32.166Z,98445.00
2018-09-18T14:22:00.808Z,98453.00
2018-09-18T14:24:29.451Z,98444.00
2018-09-18T14:26:58.200Z,98441.00
2018-09-18T14:29:26.863Z,98448.00
2018-09-18T14:31:55.712Z,98444.00
2018-09-18T14:34:24.365Z,98435.00
2018-09-18T14:36:52.828Z,98442.00
2018-09-18T14:39:21.427Z,98447.00
2018-09-18T14:41:54.587Z,98442.00
2018-09-18T14:44:23.115Z,98438.00
2018-09-18T14:46:51.736Z,98441.00
2018-09-18T14:49:20.863Z,98431.00
2018-09-18T14:51:49.661Z,98430.00
2018-09-18T14:54:40.083Z,98433.00
2018-09-18T14:57:10.518Z,98433.00
2018-09-18T14:59:39.055Z,98443.00
2018-09-18T15:02:07.458Z,98436.00
2018-09-18T15:04:35.845Z,98441.00
2018-09-18T15:07:04.401Z,98435.00
2018-09-18T15:09:32.973Z,98433.00
2018-09-18T15:12:01.523Z,98428.00
2018-09-18T15:14:29.989Z,98427.00
2018-09-18T15:16:58.349Z,98419.00
2018-09-18T15:19:26.777Z,98422.00
2018-09-18T15:21:58.626Z,98423.00
2018-09-18T15:24:27.253Z,98422.00
2018-09-18T15:26:55.677Z,98415.00
2018-09-18T15:29:24.673Z,98425.00
2018-09-18T15:31:53.241Z,98423.00
2018-09-18T15:34:22.554Z,98427.00
2018-09-18T15:36:51.370Z,98423.00
2018-09-18T15:39:20.165Z,98426.00
2018-09-18T15:41:48.586Z,98434.00
2018-09-18T15:44:17.081Z,98425.00
2018-09-18T15:46:45.570Z,98428.00
2018-09-18T15:49:13.943Z,98432.00
2018-09-18T15:51:42.455Z,98435.00
2018-09-18T15:54:10.832Z,98436.00
2018-09-18T15:56:39.197Z,98432.00
2018-09-18T15:59:07.715Z,98436.00
2018-09-18T16:01:36.118Z,98432.00
2018-09-18T16:04:04.516Z,98432.00
2018-09-18T16:06:32.911Z,98423.00
2018-09-18T16:09:01.329Z,98432.00
2018-09-18T16:11:29.723Z,98433.00
2018-09-18T16:13:58.121Z,98431.00
2018-09-18T16:16:26.575Z,98439.00
2018-09-18T16:18:54.954Z,98432.00
2018-09-18T16:21:23.404Z,98430.00
2018-09-18T16:23:51.800Z,98429.00
2018-09-18T16:26:20.197Z,98429.00
2018-09-18T16:28:48.760Z,98437.00
2018-09-18T16:31:17.150Z,98435.00
2018-09-18T16:33:45.628Z,98430.00
2018-09-18T16:36:14.077Z,98397.00
2018-09-18T16:38:42.485Z,98433.00
2018-09-18T16:41:10.869Z,98432.00
2018-09-18T16:43:39.256Z,98428.00
2018-09-18T16:46:07.863Z,98443.00
2018-09-18T16:48:36.324Z,98438.00
2018-09-18T16:51:04.661Z,98429.00
2018-09-18T16:53:33.049Z,98429.00
2018-09-18T16:56:02.571Z,98433.00
2018-09-18T16:58:31.078Z,98434.00
2018-09-18T17:00:59.437Z,98437.00
2018-09-18T17:03:27.828Z,98436.00
2018-09-18T17:05:56.293Z,98445.00
2018-09-18T17:08:24.909Z,98441.00
2018-09-18T17:10:53.321Z,98444.00
2018-09-18T17:13:21.776Z,98439.00
2018-09-18T17:16:08.244Z,98447.00
2018-09-18T17:18:37.515Z,98460.00
2018-09-18T17:21:06.506Z,98444.00
2018-09-18T17:23:35.747Z,98448.00
2018-09-18T17:26:13.633Z,98448.00
2018-09-18T17:28:48.752Z,98453.00
2018-09-18T17:31:17.190Z,98452.00
2018-09-18T17:33:46.379Z,98461.00
2018-09-18T17:36:16.436Z,98465.00
2018-09-18T17:38:49.157Z,98462.00
2018-09-18T17:41:19.204Z,98475.00
2018-09-18T17:43:53.792Z,98470.00
2018-09-18T17:46:22.874Z,98472.00
2018-09-18T17:48:52.726Z,98479.00
2018-09-18T17:51:21.860Z,98477.00
2018-09-18T17:53:50.878Z,98482.00
2018-09-18T17:56:20.588Z,98480.00
2018-09-18T17:58:52.333Z,98485.00
2018-09-18T18:01:21.533Z,98479.00
2018-09-18T18:03:50.862Z,98480.00
2018-09-18T18:06:19.815Z,98479.00
2018-09-18T18:08:49.078Z,98488.00
2018-09-18T18:11:18.162Z,98502.00
2018-09-18T18:14:05.838Z,98498.00
2018-09-18T18:16:34.725Z,98498.00
2018-09-18T18:19:08.519Z,98494.00
2018-09-18T18:21:41.717Z,98499.00
2018-09-18T18:24:10.685Z,98504.00
2018-09-18T18:26:39.618Z,98509.00
2018-09-18T18:29:08.730Z,98513.00
2018-09-18T18:31:37.501Z,98521.00
2018-09-18T18:34:06.093Z,98527.00
2018-09-18T18:36:34.556Z,98529.00
2018-09-18T18:39:03.210Z,98525.00
2018-09-18T18:41:31.726Z,98538.00
2018-09-18T18:44:00.290Z,98539.00
2018-09-18T18:46:28.879Z,98541.00
2018-09-18T18:48:57.593Z,98541.00
2018-09-18T18:51:26.200Z,98551.00
2018-09-18T18:53:54.640Z,98545.00
2018-09-18T18:56:23.082Z,98559.00
2018-09-18T18:58:51.545Z,98554.00
2018-09-18T19:01:19.975Z,98551.00
2018-09-18T19:03:48.458Z,98558.00
2018-09-18T19:06:17.143Z,98556.00
2018-09-18T19:08:45.722Z,98561.00
2018-09-18T19:11:14.178Z,98561.00
2018-09-18T19:13:42.609Z,98569.00
2018-09-18T19:16:11.078Z,98569.00
2018-09-18T19:18:39.560Z,98581.00
2018-09-18T19:21:07.982Z,98587.00
2018-09-18T19:23:36.488Z,98585.00
2018-09-18T19:26:04.857Z,98589.00
2018-09-18T19:28:33.377Z,98584.00
2018-09-18T19:31:01.797Z,98592.00
2018-09-18T19:33:30.255Z,98596.00
2018-09-18T19:35:58.703Z,98602.00
2018-09-18T19:38:27.113Z,98585.00
2018-09-18T19:40:55.550Z,98605.00
2018-09-18T19:43:23.974Z,98595.00
2018-09-18T19:45:52.399Z,98595.00
2018-09-18T19:48:20.882Z,98595.00
2018-09-18T19:50:49.318Z,98596.00
2018-09-18T19:53:17.737Z,98591.00
2018-09-18T19:55:46.166Z,98595.00
2018-09-18T19:58:14.591Z,98588.00
2018-09-18T20:00:43.064Z,98590.00
2018-09-18T20:03:11.543Z,98600.00
2018-09-18T20:05:39.979Z,98598.00
2018-09-18T20:08:08.441Z,98597.00
2018-09-18T20:10:36.838Z,98603.00
2018-09-18T20:13:05.315Z,98599.00
2018-09-18T20:15:33.754Z,98606.00
2018-09-18T20:18:02.385Z,98599.00
2018-09-18T20:20:30.869Z,98606.00
2018-09-18T20:22:59.299Z,98604.00
2018-09-18T20:25:27.729Z,98605.00
2018-09-18T20:27:56.143Z,98608.00
2018-09-18T20:30:24.559Z,98612.00
2018-09-18T20:32:53.099Z,98620.00
2018-09-18T20:35:21.501Z,98616.00
2018-09-18T20:37:49.991Z,98609.00
2018-09-18T20:40:18.412Z,98613.00
2018-09-18T20:42:46.840Z,98624.00
2018-09-18T20:45:15.252Z,98625.00
2018-09-18T20:47:43.668Z,98625.00
2018-09-18T20:50:12.102Z,98609.00
2018-09-18T20:52:40.534Z,98629.00
2018-09-18T20:55:08.957Z,98630.00
2018-09-18T20:57:37.385Z,98623.00
2018-09-18T21:00:05.816Z,98622.00
2018-09-18T21:02:34.716Z,98624.00
2018-09-18T21:05:03.621Z,98624.00
2018-09-18T21:07:32.505Z,98620.00
2018-09-18T21:10:01.320Z,98625.00
2018-09-18T21:12:30.329Z,98628.00
2018-09-18T21:14:58.784Z,98630.00
2018-09-18T21:17:27.231Z,98631.00
2018-09-18T21:19:55.875Z,98640.00
2018-09-18T21:22:24.305Z,98635.00
2018-09-18T21:25:23.479Z,98642.00
2018-09-18T21:27:51.899Z,98641.00
2018-09-18T21:30:20.379Z,98638.00
2018-09-18T21:32:48.846Z,98643.00
2018-09-18T21:35:17.363Z,98646.00
2018-09-18T21:37:45.821Z,98641.00
2018-09-18T21:40:14.268Z,98641.00
2018-09-18T21:42:42.714Z,98647.00
2018-09-18T21:45:11.139Z,98642.00
2018-09-18T21:47:39.570Z,98640.00
2018-09-18T21:50:08.104Z,98640.00
2018-09-18T21:52:36.573Z,98643.00
2018-09-18T21:55:05.010Z,98641.00
2018-09-18T21:57:33.439Z,98654.00
2018-09-18T22:00:01.914Z,98638.00
2018-09-18T22:02:30.341Z,98642.00
2018-09-18T22:04:58.760Z,98641.00
2018-09-18T22:07:27.199Z,98647.00
2018-09-18T22:09:55.929Z,98658.00
2018-09-18T22:12:24.402Z,98651.00
2018-09-18T22:14:52.820Z,98656.00
2018-09-18T22:17:21.256Z,98660.00
2018-09-18T22:19:50.516Z,98654.00
2018-09-18T22:22:19.005Z,98655.00
2018-09-18T22:24:47.405Z,98656.00
2018-09-18T22:27:15.837Z,98667.00
2018-09-18T22:29:44.284Z,98671.00
2018-09-18T22:32:12.734Z,98668.00
2018-09-18T22:34:41.147Z,98662.00
2018-09-18T22:37:09.594Z,98671.00
2018-09-18T22:39:38.033Z,98671.00
2018-09-18T22:42:06.657Z,98663.00
2018-09-18T22:44:35.089Z,98672.00
2018-09-18T22:47:03.671Z,98672.00
2018-09-18T22:49:32.102Z,98679.00
2018-09-18T22:52:00.528Z,98671.00
2018-09-18T22:54:28.964Z,98676.00
2018-09-18T22:56:57.404Z,98675.00
2018-09-18T22:59:25.825Z,98675.00
2018-09-18T23:01:54.270Z,98676.00
2018-09-18T23:04:22.687Z,98670.00
2018-09-18T23:06:51.173Z,98675.00
2018-09-18T23:09:19.672Z,98674.00
2018-09-18T23:11:48.051Z,98677.00
2018-09-18T23:14:16.522Z,98675.00
2018-09-18T23:16:44.926Z,98678.00
2018-09-18T23:19:13.345Z,98671.00
2018-09-18T23:21:41.713Z,98682.00
2018-09-18T23:24:10.291Z,98682.00
2018-09-18T23:26:39.216Z,98680.00
2018-09-18T23:29:08.092Z,98676.00
2018-09-18T23:31:37.000Z,98674.00
2018-09-18T23:34:05.409Z,98678.00
2018-09-18T23:36:33.819Z,98680.00
2018-09-18T23:39:02.211Z,98681.00
2018-09-18T23:41:30.678Z,98698.00
2018-09-18T23:43:59.057Z,98695.00
2018-09-18T23:46:27.443Z,98697.00
2018-09-18T23:48:55.837Z,98693.00
2018-09-18T23:51:24.250Z,98699.00
2018-09-18T23:53:52.625Z,98695.00
2018-09-18T23:56:20.998Z,98687.00
2018-09-18T23:58:49.366Z,98703.00
